PAVD METAR and TAF weather

Enter ICAO airport designator
Station Type Date Time Source
PAVD METAR 2019/10/15 02:56 UTC NOAA

PAVD 150256Z 00000KT 10SM FEW200 BKN300 03/M09 RMK AO2 SLPNO A2962 6//// T00281089 $


Station Type Date Time Source
PAVD Decoded METAR 2019/10/15 02:56 UTC NOAA

Valdez 2, AK, United States (PAVD) 61-08N 146-16W
Oct 14, 2019 - 10:56 PM EDT / 2019.10.15 0256 UTC
Wind: Calm:0
Visibility: 10 mile(s):0
Sky conditions: mostly cloudy
Temperature: 37.0 F (2.8 C)
Dew Point: 16.0 F (-8.9 C)
Relative Humidity: 41%
ob: PAVD 150256Z 00000KT 10SM FEW200 BKN300 03/M09 RMK AO2 SLPNO A2962 6//// T00281089
cycle: 3

Station Type Date Time Source
PAVD TAF 2019/10/14 18:36 UTC NOAA

TAF PAVD 141734Z 1418/1518 09006KT P6SM SKC
FM151000 07010G18KT P6SM SKC
AMD LTD TO CLD VIS AND WIND

Example: see airport list